createdAt,value
2023-02-11T00:00:19.207Z,22.70
2023-02-11T00:03:04.069Z,26.88
2023-02-11T00:06:04.110Z,27.98
2023-02-11T00:08:49.766Z,23.88
2023-02-11T00:11:34.884Z,23.13
2023-02-11T00:14:19.922Z,19.90
2023-02-11T00:17:04.655Z,20.33
2023-02-11T00:19:50.998Z,23.80
2023-02-11T00:22:36.207Z,22.65
2023-02-11T00:25:21.312Z,24.30
2023-02-11T00:28:06.376Z,17.07
2023-02-11T00:30:56.483Z,17.75
2023-02-11T00:33:41.739Z,17.77
2023-02-11T00:36:28.800Z,7.18
2023-02-11T00:39:13.895Z,14.07
2023-02-11T00:41:58.969Z,15.87
2023-02-11T00:44:44.242Z,17.05
2023-02-11T00:47:29.248Z,13.27
2023-02-11T00:50:14.345Z,18.15
2023-02-11T00:52:59.009Z,18.27
2023-02-11T00:55:44.228Z,14.20
2023-02-11T00:58:29.485Z,15.18
2023-02-11T01:01:14.631Z,17.15
2023-02-11T01:03:59.418Z,13.57
2023-02-11T01:06:44.625Z,21.95
2023-02-11T01:09:29.665Z,17.70
2023-02-11T01:12:14.859Z,16.95
2023-02-11T01:14:59.752Z,11.07
2023-02-11T01:17:45.115Z,12.18
2023-02-11T01:20:30.281Z,13.35
2023-02-11T01:23:15.390Z,14.90
2023-02-11T01:26:00.443Z,15.23
2023-02-11T01:28:45.707Z,15.70
2023-02-11T01:31:31.589Z,19.50
2023-02-11T01:34:17.051Z,17.88
2023-02-11T01:37:01.934Z,16.03
2023-02-11T01:39:47.172Z,17.77
2023-02-11T01:42:33.149Z,23.42
2023-02-11T01:45:46.912Z,15.63
2023-02-11T01:48:38.877Z,14.25
2023-02-11T01:51:32.784Z,20.47
2023-02-11T01:54:40.384Z,18.75
2023-02-11T01:57:29.190Z,19.33
2023-02-11T02:00:20.775Z,16.60
2023-02-11T02:03:16.872Z,19.65
2023-02-11T02:06:16.453Z,18.40
2023-02-11T02:09:06.683Z,16.95
2023-02-11T02:11:52.212Z,19.35
2023-02-11T02:14:41.102Z,20.23
2023-02-11T02:17:44.477Z,20.48
2023-02-11T02:20:48.384Z,15.57
2023-02-11T02:23:39.490Z,25.40
2023-02-11T02:26:37.409Z,25.23
2023-02-11T02:29:34.533Z,20.08
2023-02-11T02:32:41.399Z,23.38
2023-02-11T02:35:40.092Z,20.67
2023-02-11T02:38:25.233Z,17.23
2023-02-11T02:41:13.886Z,22.80
2023-02-11T02:43:59.017Z,24.30
2023-02-11T02:46:44.368Z,22.67
2023-02-11T02:49:29.545Z,22.37
2023-02-11T02:52:42.649Z,22.88
2023-02-11T02:56:01.736Z,18.80
2023-02-11T02:58:53.223Z,20.17
2023-02-11T03:02:03.276Z,17.00
2023-02-11T03:05:11.929Z,28.33
2023-02-11T03:08:05.431Z,23.75
2023-02-11T03:10:53.137Z,17.20
2023-02-11T03:13:40.211Z,29.17
2023-02-11T03:16:28.076Z,23.58
2023-02-11T03:19:17.939Z,22.03
2023-02-11T03:22:07.529Z,25.92
2023-02-11T03:24:53.352Z,17.25
2023-02-11T03:27:57.663Z,22.52
2023-02-11T03:30:53.237Z,26.58
2023-02-11T03:34:06.344Z,18.13
2023-02-11T03:36:56.900Z,22.48
2023-02-11T03:40:06.262Z,22.40
2023-02-11T03:42:59.267Z,22.30
2023-02-11T03:45:48.313Z,22.13
2023-02-11T03:48:41.794Z,18.80
2023-02-11T03:51:28.947Z,6.85
2023-02-11T03:54:18.481Z,24.35
2023-02-11T03:57:03.919Z,18.23
2023-02-11T03:59:53.843Z,19.38
2023-02-11T04:02:39.954Z,17.70
2023-02-11T04:05:24.754Z,24.77
2023-02-11T04:08:10.306Z,21.02
2023-02-11T04:10:55.356Z,19.45
2023-02-11T04:13:40.533Z,22.60
2023-02-11T04:16:25.428Z,28.53
2023-02-11T04:19:10.537Z,22.88
2023-02-11T04:21:56.826Z,22.05
2023-02-11T04:24:43.874Z,22.98
2023-02-11T04:27:28.738Z,25.27
2023-02-11T04:30:14.280Z,22.63
2023-02-11T04:32:59.310Z,27.15
2023-02-11T04:35:44.960Z,28.60
2023-02-11T04:38:30.044Z,21.38
2023-02-11T04:41:15.206Z,25.70
2023-02-11T04:43:59.926Z,23.97
2023-02-11T04:46:45.200Z,26.15
2023-02-11T04:49:30.174Z,26.73
2023-02-11T04:52:15.353Z,22.63
2023-02-11T04:55:00.500Z,4.55
2023-02-11T04:57:45.538Z,10.20
2023-02-11T05:00:30.410Z,17.00
2023-02-11T05:03:16.177Z,21.40
2023-02-11T05:06:01.367Z,20.60
2023-02-11T05:08:46.319Z,27.05
2023-02-11T05:11:31.342Z,19.53
2023-02-11T05:14:16.254Z,18.83
2023-02-11T05:17:01.105Z,19.77
2023-02-11T05:19:46.293Z,21.63
2023-02-11T05:22:31.111Z,20.02
2023-02-11T05:25:16.353Z,17.07
2023-02-11T05:28:01.743Z,15.80
2023-02-11T05:30:46.989Z,20.60
2023-02-11T05:33:31.830Z,19.33
2023-02-11T05:36:18.145Z,12.57
2023-02-11T05:39:03.373Z,20.13
2023-02-11T05:41:48.213Z,17.67
2023-02-11T05:44:32.980Z,19.90
2023-02-11T05:47:18.167Z,20.35
2023-02-11T05:50:03.173Z,17.02
2023-02-11T05:52:48.088Z,19.23
2023-02-11T05:55:33.542Z,18.00
2023-02-11T05:58:18.827Z,18.95
2023-02-11T06:01:03.758Z,20.15
2023-02-11T06:03:49.962Z,22.38
2023-02-11T06:06:34.811Z,20.23
2023-02-11T06:09:19.728Z,19.52
2023-02-11T06:12:04.946Z,18.55
2023-02-11T06:14:50.099Z,18.83
2023-02-11T06:17:36.458Z,19.35
2023-02-11T06:20:21.587Z,17.40
2023-02-11T06:23:06.539Z,21.33
2023-02-11T06:25:53.001Z,17.75
2023-02-11T06:28:41.865Z,21.90
2023-02-11T06:31:27.921Z,21.20
2023-02-11T06:34:13.174Z,19.43
2023-02-11T06:36:57.950Z,23.48
2023-02-11T06:39:45.247Z,17.40
2023-02-11T06:42:30.090Z,20.92
2023-02-11T06:45:15.345Z,20.80
2023-02-11T06:48:00.538Z,22.37
2023-02-11T06:50:45.647Z,27.63
2023-02-11T06:53:31.254Z,18.20
2023-02-11T06:56:21.133Z,21.80
2023-02-11T06:59:05.960Z,19.77
2023-02-11T07:01:51.238Z,19.73
2023-02-11T07:04:36.070Z,18.67
2023-02-11T07:07:21.275Z,18.80
2023-02-11T07:10:06.567Z,21.42
2023-02-11T07:12:51.654Z,20.17
2023-02-11T07:15:37.904Z,20.70
2023-02-11T07:18:22.929Z,18.40
2023-02-11T07:21:10.135Z,21.92
2023-02-11T07:23:55.307Z,22.08
2023-02-11T07:26:40.691Z,16.27
2023-02-11T07:29:26.029Z,20.43
2023-02-11T07:32:11.248Z,18.80
2023-02-11T07:34:56.175Z,18.55
2023-02-11T07:37:41.600Z,22.00
2023-02-11T07:40:26.481Z,21.58
2023-02-11T07:43:11.595Z,18.17
2023-02-11T07:45:56.461Z,21.25
2023-02-11T07:48:41.706Z,20.27
2023-02-11T07:51:29.358Z,23.45
2023-02-11T07:54:14.046Z,20.05
2023-02-11T07:56:59.032Z,22.13
2023-02-11T07:59:44.018Z,23.75
2023-02-11T08:02:28.967Z,21.48
2023-02-11T08:05:13.958Z,22.25
2023-02-11T08:07:58.883Z,24.15
2023-02-11T08:10:43.913Z,22.80
2023-02-11T08:13:28.805Z,21.20
2023-02-11T08:16:26.601Z,18.90
2023-02-11T08:19:16.502Z,17.33
2023-02-11T08:22:01.798Z,20.85
2023-02-11T08:24:46.620Z,21.10
2023-02-11T08:27:31.621Z,19.00
2023-02-11T08:30:16.730Z,20.83
2023-02-11T08:33:02.159Z,22.65
2023-02-11T08:35:47.303Z,13.32
2023-02-11T08:38:32.134Z,8.60
2023-02-11T08:41:18.021Z,12.25
2023-02-11T08:44:03.674Z,18.98
2023-02-11T08:46:50.052Z,16.90
2023-02-11T08:49:35.052Z,18.58
2023-02-11T08:52:19.993Z,19.07
2023-02-11T08:55:05.290Z,19.05
2023-02-11T08:57:50.720Z,23.83
2023-02-11T09:00:36.296Z,18.58
2023-02-11T09:03:21.141Z,21.35
2023-02-11T09:06:08.670Z,15.87
2023-02-11T09:08:57.146Z,18.73
2023-02-11T09:11:44.509Z,24.58
2023-02-11T09:14:29.683Z,19.52
2023-02-11T09:17:14.877Z,7.28
2023-02-11T09:19:59.794Z,18.27
2023-02-11T09:22:44.958Z,19.33
2023-02-11T09:25:29.909Z,24.85
2023-02-11T09:28:14.991Z,22.08
2023-02-11T09:31:05.440Z,23.88
2023-02-11T09:33:53.731Z,12.57
2023-02-11T09:36:40.659Z,19.10
2023-02-11T09:39:26.672Z,16.27
2023-02-11T09:42:43.711Z,18.58
2023-02-11T09:45:30.215Z,17.35
2023-02-11T09:48:21.381Z,6.93
2023-02-11T09:51:16.318Z,17.42
2023-02-11T09:54:09.659Z,20.50
2023-02-11T09:56:54.464Z,6.68
2023-02-11T09:59:40.188Z,20.40
2023-02-11T10:02:52.302Z,14.50
2023-02-11T10:05:54.818Z,20.83
2023-02-11T10:09:13.978Z,19.13
2023-02-11T10:11:59.037Z,17.90
2023-02-11T10:15:14.782Z,19.75
2023-02-11T10:18:06.614Z,18.87
2023-02-11T10:21:17.655Z,21.40
2023-02-11T10:24:06.132Z,17.73
2023-02-11T10:26:51.752Z,21.98
2023-02-11T10:29:43.317Z,17.27
2023-02-11T10:32:59.612Z,11.07
2023-02-11T10:35:45.566Z,15.25
2023-02-11T10:38:30.717Z,18.30
2023-02-11T10:41:32.460Z,19.63
2023-02-11T10:44:35.711Z,20.05
2023-02-11T10:47:23.905Z,20.37
2023-02-11T10:50:29.736Z,19.08
2023-02-11T10:53:20.857Z,14.27
2023-02-11T10:56:07.827Z,16.60
2023-02-11T10:59:05.392Z,21.33
2023-02-11T11:01:53.720Z,17.87
2023-02-11T11:04:42.209Z,22.05
2023-02-11T11:07:31.380Z,15.25
2023-02-11T11:10:29.409Z,17.23
2023-02-11T11:13:25.309Z,15.30
2023-02-11T11:16:13.644Z,15.23
2023-02-11T11:19:07.937Z,22.63
2023-02-11T11:21:54.644Z,11.63
2023-02-11T11:24:44.729Z,15.13
2023-02-11T11:27:30.131Z,15.15
2023-02-11T11:30:17.215Z,17.80
2023-02-11T11:33:02.493Z,14.13
2023-02-11T11:36:04.874Z,18.60
2023-02-11T11:39:04.346Z,21.17
2023-02-11T11:41:58.320Z,22.17
2023-02-11T11:45:00.267Z,19.80
2023-02-11T11:47:54.136Z,22.80
2023-02-11T11:50:45.352Z,20.55
2023-02-11T11:53:56.126Z,20.63
2023-02-11T11:57:10.162Z,21.10
2023-02-11T11:59:55.722Z,19.30
2023-02-11T12:03:06.802Z,22.63
2023-02-11T12:06:14.049Z,26.27
2023-02-11T12:09:16.314Z,22.83
2023-02-11T12:12:32.484Z,23.33
2023-02-11T12:15:36.198Z,23.50
2023-02-11T12:18:50.971Z,23.08
2023-02-11T12:21:41.490Z,26.85
2023-02-11T12:25:07.841Z,23.08
2023-02-11T12:28:02.993Z,24.88
2023-02-11T12:30:57.679Z,18.30
2023-02-11T12:34:36.699Z,24.30
2023-02-11T12:38:03.284Z,23.58
2023-02-11T12:40:54.180Z,26.20
2023-02-11T12:43:41.914Z,23.48
2023-02-11T12:46:55.670Z,24.83
2023-02-11T12:50:19.161Z,27.02
2023-02-11T12:53:22.527Z,26.05
2023-02-11T12:56:24.040Z,29.23
2023-02-11T12:59:29.034Z,29.38
2023-02-11T13:02:40.746Z,18.80
2023-02-11T13:05:37.866Z,23.10
2023-02-11T13:08:30.454Z,18.35
2023-02-11T13:11:24.295Z,21.05
2023-02-11T13:14:16.974Z,24.27
2023-02-11T13:17:11.009Z,26.67
2023-02-11T13:20:05.543Z,29.02
2023-02-11T13:23:07.547Z,29.00
2023-02-11T13:26:05.051Z,25.33
2023-02-11T13:28:56.632Z,29.35
2023-02-11T13:31:41.769Z,26.97
2023-02-11T13:34:46.880Z,29.10
2023-02-11T13:37:38.526Z,25.70
2023-02-11T13:40:34.108Z,26.80
2023-02-11T13:43:25.283Z,23.38
2023-02-11T13:46:14.897Z,27.47
2023-02-11T13:49:00.190Z,29.77
2023-02-11T13:51:45.188Z,25.23
2023-02-11T13:54:34.430Z,29.15
2023-02-11T13:57:19.524Z,28.67
2023-02-11T14:00:33.108Z,30.73
2023-02-11T14:03:53.183Z,20.33
2023-02-11T14:06:57.149Z,25.75
2023-02-11T14:09:42.374Z,26.15
2023-02-11T14:12:34.704Z,23.50
2023-02-11T14:15:21.126Z,24.37
2023-02-11T14:18:36.021Z,22.77
2023-02-11T14:21:30.334Z,27.45
2023-02-11T14:24:18.505Z,30.02
2023-02-11T14:27:21.264Z,26.80
2023-02-11T14:30:09.347Z,27.23
2023-02-11T14:33:17.325Z,29.90
2023-02-11T14:36:12.825Z,26.00
2023-02-11T14:39:00.602Z,27.08
2023-02-11T14:41:48.663Z,28.80
2023-02-11T14:44:34.252Z,27.93
2023-02-11T14:47:23.676Z,27.27
2023-02-11T14:50:24.433Z,27.83
2023-02-11T14:53:18.686Z,28.77
2023-02-11T14:56:15.661Z,20.17
2023-02-11T14:59:02.520Z,23.03
2023-02-11T15:01:54.360Z,25.73
2023-02-11T15:04:41.981Z,20.40
2023-02-11T15:07:27.259Z,27.10
2023-02-11T15:10:37.939Z,31.30
2023-02-11T15:13:27.626Z,24.73
2023-02-11T15:16:18.288Z,24.92
2023-02-11T15:19:07.382Z,28.42
2023-02-11T15:21:53.540Z,26.25
2023-02-11T15:24:39.990Z,21.77
2023-02-11T15:27:25.714Z,26.37
2023-02-11T15:30:24.807Z,22.98
2023-02-11T15:33:22.273Z,24.60
2023-02-11T15:36:11.919Z,22.75
2023-02-11T15:39:18.157Z,24.20
2023-02-11T15:42:31.426Z,21.63
2023-02-11T15:45:25.752Z,22.15
2023-02-11T15:48:17.518Z,28.42
2023-02-11T15:51:18.642Z,24.80
2023-02-11T15:54:07.933Z,23.60
2023-02-11T15:56:58.750Z,21.47
2023-02-11T15:59:50.143Z,25.88
2023-02-11T16:02:37.224Z,20.08
2023-02-11T16:05:37.719Z,23.77
2023-02-11T16:08:32.727Z,23.35
2023-02-11T16:11:31.616Z,25.97
2023-02-11T16:14:37.020Z,25.88
2023-02-11T16:17:27.218Z,25.67
2023-02-11T16:20:21.198Z,23.05
2023-02-11T16:23:07.456Z,22.60
2023-02-11T16:25:59.617Z,24.60
2023-02-11T16:28:44.659Z,26.40
2023-02-11T16:31:38.995Z,24.45
2023-02-11T16:34:25.386Z,26.40
2023-02-11T16:37:10.490Z,28.02
2023-02-11T16:39:56.716Z,23.67
2023-02-11T16:42:41.580Z,27.13
2023-02-11T16:45:26.748Z,25.83
2023-02-11T16:48:16.102Z,28.70
2023-02-11T16:51:00.954Z,23.50
2023-02-11T16:53:46.097Z,24.10
2023-02-11T16:56:31.027Z,24.75
2023-02-11T16:59:16.219Z,28.33
2023-02-11T17:02:01.116Z,24.08
2023-02-11T17:04:46.714Z,29.40
2023-02-11T17:07:32.364Z,28.20
2023-02-11T17:10:23.102Z,27.55
2023-02-11T17:13:08.113Z,31.25
2023-02-11T17:15:53.843Z,25.52
2023-02-11T17:18:39.118Z,30.25
2023-02-11T17:21:27.569Z,32.13
2023-02-11T17:24:14.933Z,29.02
2023-02-11T17:27:00.069Z,31.13
2023-02-11T17:29:45.214Z,29.88
2023-02-11T17:32:30.075Z,30.52
2023-02-11T17:35:15.265Z,27.57
2023-02-11T17:38:01.316Z,28.33
2023-02-11T17:40:46.039Z,28.27
2023-02-11T17:43:31.770Z,25.20
2023-02-11T17:46:17.344Z,30.10
2023-02-11T17:49:03.579Z,28.73
2023-02-11T17:51:48.362Z,28.27
2023-02-11T17:54:33.412Z,31.33
2023-02-11T17:57:18.286Z,31.20
2023-02-11T18:00:04.901Z,27.20
2023-02-11T18:02:49.641Z,29.27
2023-02-11T18:05:37.554Z,31.77
2023-02-11T18:08:22.729Z,26.73
2023-02-11T18:11:12.154Z,29.50
2023-02-11T18:14:01.778Z,27.05
2023-02-11T18:16:50.290Z,26.80
2023-02-11T18:19:36.483Z,31.67
2023-02-11T18:22:21.965Z,29.10
2023-02-11T18:25:08.581Z,28.27
2023-02-11T18:27:53.425Z,28.38
2023-02-11T18:30:38.382Z,32.27
2023-02-11T18:33:23.321Z,24.67
2023-02-11T18:36:14.432Z,28.08
2023-02-11T18:39:00.547Z,28.13
2023-02-11T18:41:46.451Z,26.85
2023-02-11T18:44:31.593Z,26.67
2023-02-11T18:47:16.910Z,25.85
2023-02-11T18:50:01.804Z,29.38
2023-02-11T18:52:46.894Z,31.45
2023-02-11T18:55:31.575Z,32.78
2023-02-11T18:58:17.042Z,31.30
2023-02-11T19:01:02.186Z,32.55
2023-02-11T19:03:48.121Z,31.05
2023-02-11T19:06:36.384Z,26.73
2023-02-11T19:09:21.432Z,30.30
2023-02-11T19:12:07.847Z,30.87
2023-02-11T19:14:53.021Z,32.35
2023-02-11T19:17:38.122Z,30.58
2023-02-11T19:20:22.990Z,28.60
2023-02-11T19:23:08.120Z,34.50
2023-02-11T19:25:53.155Z,31.50
2023-02-11T19:28:39.058Z,37.50
2023-02-11T19:31:24.503Z,36.72
2023-02-11T19:34:11.070Z,34.15
2023-02-11T19:36:56.669Z,32.40
2023-02-11T19:39:43.227Z,30.80
2023-02-11T19:42:28.159Z,34.00
2023-02-11T19:45:13.228Z,34.13
2023-02-11T19:47:58.303Z,30.23
2023-02-11T19:50:43.383Z,32.72
2023-02-11T19:53:28.240Z,32.40
2023-02-11T19:56:14.891Z,28.85
2023-02-11T19:59:02.472Z,30.65
2023-02-11T20:01:48.892Z,34.92
2023-02-11T20:04:33.828Z,29.40
2023-02-11T20:07:18.712Z,30.43
2023-02-11T20:10:03.887Z,34.33
2023-02-11T20:12:48.718Z,35.83
2023-02-11T20:15:33.619Z,35.05
2023-02-11T20:18:18.580Z,30.98
2023-02-11T20:21:10.811Z,32.03
2023-02-11T20:23:56.200Z,36.85
2023-02-11T20:26:42.321Z,32.38
2023-02-11T20:29:30.955Z,33.22
2023-02-11T20:32:16.098Z,37.55
2023-02-11T20:35:00.846Z,34.93
2023-02-11T20:37:46.117Z,35.05
2023-02-11T20:40:31.003Z,40.67
2023-02-11T20:43:16.530Z,35.95
2023-02-11T20:46:03.617Z,39.53
2023-02-11T20:48:48.342Z,34.20
2023-02-11T20:51:34.454Z,37.10
2023-02-11T20:54:21.049Z,38.38
2023-02-11T20:57:07.074Z,39.78
2023-02-11T20:59:52.415Z,40.35
2023-02-11T21:02:37.338Z,39.13
2023-02-11T21:05:22.382Z,36.90
2023-02-11T21:08:07.287Z,37.05
2023-02-11T21:10:52.415Z,39.33
2023-02-11T21:13:38.320Z,40.55
2023-02-11T21:16:23.558Z,36.80
2023-02-11T21:19:08.571Z,37.67
2023-02-11T21:21:55.098Z,39.92
2023-02-11T21:24:39.875Z,46.85
2023-02-11T21:27:30.924Z,34.78
2023-02-11T21:30:17.282Z,38.37
2023-02-11T21:33:02.275Z,39.15
2023-02-11T21:35:47.876Z,38.65
2023-02-11T21:38:33.105Z,38.40
2023-02-11T21:41:21.683Z,39.92
2023-02-11T21:44:06.534Z,41.10
2023-02-11T21:46:51.572Z,36.72
2023-02-11T21:49:36.553Z,42.40
2023-02-11T21:52:21.798Z,43.03
2023-02-11T21:55:06.904Z,39.10
2023-02-11T21:57:52.213Z,43.97
2023-02-11T22:00:37.527Z,43.30
2023-02-11T22:03:22.806Z,39.63
2023-02-11T22:06:13.061Z,40.83
2023-02-11T22:08:59.031Z,42.33
2023-02-11T22:11:44.227Z,40.97
2023-02-11T22:14:32.171Z,39.67
2023-02-11T22:17:17.586Z,45.78
2023-02-11T22:20:02.679Z,40.78
2023-02-11T22:22:47.815Z,46.65
2023-02-11T22:25:32.624Z,44.63
2023-02-11T22:28:17.835Z,42.58
2023-02-11T22:31:02.858Z,47.05
2023-02-11T22:33:48.798Z,49.47
2023-02-11T22:36:39.309Z,43.92
2023-02-11T22:39:24.473Z,40.50
2023-02-11T22:42:09.422Z,42.45
2023-02-11T22:44:54.609Z,44.85
2023-02-11T22:47:39.426Z,45.33
2023-02-11T22:50:24.557Z,43.53
2023-02-11T22:53:09.609Z,41.73
2023-02-11T22:55:55.267Z,49.13
2023-02-11T22:58:40.620Z,49.10
2023-02-11T23:01:26.256Z,47.65
2023-02-11T23:04:13.643Z,42.33
2023-02-11T23:06:58.864Z,46.23
2023-02-11T23:09:43.886Z,44.75
2023-02-11T23:12:28.706Z,47.45
2023-02-11T23:15:13.985Z,46.92
2023-02-11T23:17:59.202Z,45.60
2023-02-11T23:20:45.013Z,45.40
2023-02-11T23:23:29.960Z,45.70
2023-02-11T23:26:17.923Z,47.92
2023-02-11T23:29:03.865Z,43.55
2023-02-11T23:31:49.627Z,44.00
2023-02-11T23:34:34.666Z,44.10
2023-02-11T23:37:19.897Z,48.35
2023-02-11T23:40:05.198Z,43.22
2023-02-11T23:42:50.386Z,40.58
2023-02-11T23:45:35.312Z,45.13
2023-02-11T23:48:20.389Z,43.90
2023-02-11T23:51:05.372Z,38.80
2023-02-11T23:53:53.985Z,40.45
2023-02-11T23:56:38.956Z,47.13
2023-02-11T23:59:23.780Z,44.95
